createdAt,value
2023-05-25T00:01:07.672Z,101444.08
2023-05-25T00:03:41.136Z,101447.69
2023-05-25T00:06:15.747Z,101443.63
2023-05-25T00:08:49.619Z,101442.20
2023-05-25T00:11:23.570Z,101439.67
2023-05-25T00:13:56.935Z,101442.73
2023-05-25T00:16:29.857Z,101444.62
2023-05-25T00:19:04.750Z,101443.47
2023-05-25T00:21:38.593Z,101442.94
2023-05-25T00:24:11.742Z,101439.29
2023-05-25T00:26:44.673Z,101438.23
2023-05-25T00:29:19.459Z,101435.54
2023-05-25T00:31:52.413Z,101432.86
2023-05-25T00:34:25.781Z,101430.88
2023-05-25T00:36:58.661Z,101428.95
2023-05-25T00:39:33.345Z,101428.90
2023-05-25T00:42:07.954Z,101435.98
2023-05-25T00:44:40.836Z,101438.46
2023-05-25T00:47:14.361Z,101438.67
2023-05-25T00:49:47.233Z,101438.23
2023-05-25T00:52:20.258Z,101442.27
2023-05-25T00:54:56.310Z,101444.90
2023-05-25T00:57:34.468Z,101448.13
2023-05-25T01:00:11.629Z,101447.96
2023-05-25T01:02:46.605Z,101451.45
2023-05-25T01:05:21.946Z,101457.73
2023-05-25T01:07:57.578Z,101462.55
2023-05-25T01:10:35.127Z,101468.85
2023-05-25T01:13:10.786Z,101468.92
2023-05-25T01:15:44.166Z,101470.90
2023-05-25T01:18:18.420Z,101472.88
2023-05-25T01:21:13.291Z,101475.60
2023-05-25T01:23:54.385Z,101474.59
2023-05-25T01:26:31.460Z,101478.17
2023-05-25T01:29:07.945Z,101481.39
2023-05-25T01:31:42.310Z,101481.13
2023-05-25T01:34:17.526Z,101481.39
2023-05-25T01:36:50.569Z,101482.59
2023-05-25T01:39:25.950Z,101484.20
2023-05-25T01:41:58.861Z,101486.61
2023-05-25T01:44:32.726Z,101479.90
2023-05-25T01:47:13.088Z,101478.84
2023-05-25T01:49:53.761Z,101478.80
2023-05-25T01:52:30.508Z,101478.57
2023-05-25T01:55:07.405Z,101480.79
2023-05-25T01:57:44.738Z,101482.49
2023-05-25T02:00:21.562Z,101489.31
2023-05-25T02:02:56.153Z,101487.61
2023-05-25T02:05:29.475Z,101486.44
2023-05-25T02:08:02.298Z,101488.63
2023-05-25T02:10:37.337Z,101490.87
2023-05-25T02:13:11.128Z,101490.27
2023-05-25T02:15:44.590Z,101490.95
2023-05-25T02:18:18.465Z,101489.36
2023-05-25T02:20:51.620Z,101486.70
2023-05-25T02:23:24.405Z,101483.77
2023-05-25T02:25:57.344Z,101483.86
2023-05-25T02:28:30.580Z,101488.11
2023-05-25T02:31:03.605Z,101498.05
2023-05-25T02:33:36.584Z,101499.73
2023-05-25T02:36:10.316Z,101499.92
2023-05-25T02:38:43.576Z,101508.08
2023-05-25T02:41:16.999Z,101507.19
2023-05-25T02:43:50.926Z,101505.35
2023-05-25T02:46:24.028Z,101506.55
2023-05-25T02:48:56.905Z,101505.14
2023-05-25T02:51:30.960Z,101504.92
2023-05-25T02:54:04.505Z,101506.36
2023-05-25T02:56:37.622Z,101509.73
2023-05-25T02:59:11.311Z,101509.31
2023-05-25T03:01:44.169Z,101510.34
2023-05-25T03:04:18.416Z,101512.56
2023-05-25T03:06:51.291Z,101511.65
2023-05-25T03:09:25.095Z,101505.84
2023-05-25T03:11:58.233Z,101504.48
2023-05-25T03:14:31.429Z,101503.77
2023-05-25T03:17:10.182Z,101506.46
2023-05-25T03:19:44.273Z,101508.59
2023-05-25T03:22:17.565Z,101510.98
2023-05-25T03:24:51.706Z,101511.29
2023-05-25T03:27:24.577Z,101512.23
2023-05-25T03:29:57.677Z,101510.38
2023-05-25T03:32:30.902Z,101514.54
2023-05-25T03:35:04.659Z,101515.08
2023-05-25T03:37:38.138Z,101515.89
2023-05-25T03:40:12.994Z,101521.35
2023-05-25T03:46:34.942Z,101528.11
2023-05-25T03:49:14.059Z,101526.52
2023-05-25T03:54:25.684Z,101530.33
2023-05-25T03:56:59.920Z,101532.02
2023-05-25T03:59:34.434Z,101529.84
2023-05-25T04:02:07.929Z,101535.80
2023-05-25T04:04:42.123Z,101537.98
2023-05-25T04:07:15.014Z,101539.85
2023-05-25T04:09:47.953Z,101542.55
2023-05-25T04:12:22.654Z,101541.80
2023-05-25T04:14:56.802Z,101539.27
2023-05-25T04:17:31.049Z,101541.54
2023-05-25T04:20:04.538Z,101542.64
2023-05-25T04:22:40.560Z,101543.66
2023-05-25T04:25:14.598Z,101549.64
2023-05-25T04:27:49.545Z,101550.17
2023-05-25T04:30:32.020Z,101542.02
2023-05-25T04:33:30.077Z,101538.32
2023-05-25T04:36:11.255Z,101535.16
2023-05-25T04:38:48.862Z,101538.15
2023-05-25T04:41:22.509Z,101538.65
2023-05-25T04:44:08.949Z,101536.75
2023-05-25T04:46:46.950Z,101538.73
2023-05-25T04:49:40.203Z,101539.52
2023-05-25T04:52:15.614Z,101537.90
2023-05-25T04:54:49.413Z,101539.23
2023-05-25T04:57:28.637Z,101543.13
2023-05-25T05:00:03.446Z,101548.96
2023-05-25T05:02:37.750Z,101549.80
2023-05-25T05:05:11.710Z,101549.41
2023-05-25T05:07:46.196Z,101549.48
2023-05-25T05:10:22.027Z,101551.95
2023-05-25T05:12:59.756Z,101549.98
2023-05-25T05:15:32.792Z,101548.52
2023-05-25T05:18:07.195Z,101545.44
2023-05-25T05:20:41.244Z,101546.55
2023-05-25T05:23:15.419Z,101549.79
2023-05-25T05:25:48.249Z,101545.61
2023-05-25T05:28:21.670Z,101546.98
2023-05-25T05:30:54.599Z,101544.77
2023-05-25T05:33:28.576Z,101541.70
2023-05-25T05:36:02.922Z,101546.85
2023-05-25T05:38:38.760Z,101548.20
2023-05-25T05:41:14.665Z,101554.59
2023-05-25T05:43:52.198Z,101552.59
2023-05-25T05:46:25.025Z,101553.74
2023-05-25T05:49:12.103Z,101554.55
2023-05-25T05:51:45.999Z,101550.09
2023-05-25T05:54:23.840Z,101546.48
2023-05-25T05:56:57.421Z,101544.08
2023-05-25T05:59:32.521Z,101542.48
2023-05-25T06:02:07.752Z,101546.29
2023-05-25T06:04:41.534Z,101548.89
2023-05-25T06:07:16.458Z,101545.73
2023-05-25T06:09:49.312Z,101543.33
2023-05-25T06:12:22.134Z,101544.67
2023-05-25T06:15:13.894Z,101545.52
2023-05-25T06:17:47.240Z,101545.86
2023-05-25T06:20:21.290Z,101543.70
2023-05-25T06:22:55.000Z,101544.36
2023-05-25T06:25:45.457Z,101546.77
2023-05-25T06:28:18.727Z,101549.77
2023-05-25T06:31:03.976Z,101551.86
2023-05-25T06:33:59.544Z,101555.48
2023-05-25T06:36:46.947Z,101556.41
2023-05-25T06:39:47.695Z,101556.36
2023-05-25T06:42:24.147Z,101554.61
2023-05-25T06:45:03.150Z,101558.77
2023-05-25T06:47:38.950Z,101563.35
2023-05-25T06:50:13.862Z,101568.16
2023-05-25T06:52:46.944Z,101566.09
2023-05-25T06:55:21.258Z,101574.39
2023-05-25T06:57:56.897Z,101568.39
2023-05-25T07:00:29.745Z,101566.27
2023-05-25T07:03:02.902Z,101570.48
2023-05-25T07:05:36.120Z,101572.11
2023-05-25T07:08:11.193Z,101567.96
2023-05-25T07:10:44.995Z,101566.34
2023-05-25T07:13:19.598Z,101563.58
2023-05-25T07:15:53.173Z,101560.69
2023-05-25T07:18:28.148Z,101562.20
2023-05-25T07:21:01.009Z,101561.11
2023-05-25T07:23:35.368Z,101559.70
2023-05-25T07:26:08.363Z,101557.81
2023-05-25T07:29:05.510Z,101549.99
2023-05-25T07:31:38.338Z,101545.89
2023-05-25T07:34:11.202Z,101544.17
2023-05-25T07:36:44.631Z,101549.80
2023-05-25T07:39:18.415Z,101554.23
2023-05-25T07:41:51.237Z,101553.59
2023-05-25T07:44:25.076Z,101555.23
2023-05-25T07:46:58.017Z,101559.70
2023-05-25T07:49:36.625Z,101561.38
2023-05-25T07:52:11.320Z,101559.31
2023-05-25T07:54:48.913Z,101561.23
2023-05-25T07:57:21.883Z,101560.77
2023-05-25T07:59:57.361Z,101558.11
2023-05-25T08:02:30.358Z,101557.38
2023-05-25T08:05:06.686Z,101563.60
2023-05-25T08:07:40.747Z,101560.98
2023-05-25T08:10:16.686Z,101560.17
2023-05-25T08:12:51.225Z,101559.33
2023-05-25T08:15:26.603Z,101559.09
2023-05-25T08:17:59.677Z,101561.13
2023-05-25T08:20:33.228Z,101562.92
2023-05-25T08:23:14.281Z,101556.67
2023-05-25T08:25:47.228Z,101558.72
2023-05-25T08:28:22.532Z,101554.39
2023-05-25T08:31:01.143Z,101549.98
2023-05-25T08:34:08.292Z,101551.50
2023-05-25T08:36:42.035Z,101549.77
2023-05-25T08:39:16.039Z,101544.10
2023-05-25T08:41:54.160Z,101550.41
2023-05-25T08:44:29.588Z,101553.08
2023-05-25T08:47:08.536Z,101553.54
2023-05-25T08:49:47.827Z,101552.71
2023-05-25T08:52:30.615Z,101550.74
2023-05-25T08:55:18.001Z,101551.80
2023-05-25T08:58:05.670Z,101554.59
2023-05-25T09:00:46.271Z,101556.17
2023-05-25T09:03:25.994Z,101554.30
2023-05-25T09:07:08.751Z,101556.18
2023-05-25T09:10:09.117Z,101557.23
2023-05-25T09:12:43.788Z,101561.45
2023-05-25T09:15:21.215Z,101558.64
2023-05-25T09:17:59.132Z,101557.02
2023-05-25T09:20:43.654Z,101558.29
2023-05-25T09:23:24.333Z,101562.02
2023-05-25T09:25:57.855Z,101555.98
2023-05-25T09:28:38.610Z,101556.33
2023-05-25T09:31:14.654Z,101559.04
2023-05-25T09:34:00.884Z,101554.81
2023-05-25T09:36:37.102Z,101561.94
2023-05-25T09:39:14.490Z,101567.02
2023-05-25T09:41:52.602Z,101563.27
2023-05-25T09:44:31.032Z,101563.08
2023-05-25T09:47:09.042Z,101559.23
2023-05-25T09:49:48.079Z,101552.41
2023-05-25T09:52:23.828Z,101554.19
2023-05-25T09:55:10.672Z,101553.32
2023-05-25T09:58:03.892Z,101556.27
2023-05-25T10:00:36.720Z,101560.00
2023-05-25T10:03:15.631Z,101561.13
2023-05-25T10:06:02.926Z,101565.11
2023-05-25T10:08:37.178Z,101560.28
2023-05-25T10:11:18.529Z,101555.63
2023-05-25T10:14:04.526Z,101554.47
2023-05-25T10:16:40.564Z,101554.95
2023-05-25T10:19:33.011Z,101556.02
2023-05-25T10:22:43.642Z,101561.05
2023-05-25T10:25:28.031Z,101561.56
2023-05-25T10:28:09.820Z,101562.64
2023-05-25T10:30:47.281Z,101562.50
2023-05-25T10:33:52.520Z,101561.30
2023-05-25T10:36:51.578Z,101563.77
2023-05-25T10:39:38.836Z,101561.52
2023-05-25T10:42:13.395Z,101562.18
2023-05-25T10:44:51.594Z,101561.44
2023-05-25T10:47:24.837Z,101557.56
2023-05-25T10:50:07.382Z,101553.45
2023-05-25T10:52:40.978Z,101556.21
2023-05-25T10:55:14.049Z,101553.09
2023-05-25T10:58:12.140Z,101549.70
2023-05-25T11:01:01.736Z,101546.84
2023-05-25T11:03:57.509Z,101542.91
2023-05-25T11:07:03.177Z,101540.50
2023-05-25T11:09:43.693Z,101533.18
2023-05-25T11:12:28.006Z,101533.36
2023-05-25T11:15:16.837Z,101530.98
2023-05-25T11:18:03.186Z,101530.18
2023-05-25T11:20:41.933Z,101529.62
2023-05-25T11:23:29.479Z,101529.39
2023-05-25T11:26:08.221Z,101531.36
2023-05-25T11:29:04.765Z,101528.75
2023-05-25T11:31:43.667Z,101528.31
2023-05-25T11:34:18.927Z,101524.82
2023-05-25T11:37:25.209Z,101524.55
2023-05-25T11:40:21.985Z,101522.56
2023-05-25T11:42:57.220Z,101526.98
2023-05-25T11:45:31.760Z,101527.77
2023-05-25T11:48:10.652Z,101524.92
2023-05-25T11:50:45.927Z,101527.15
2023-05-25T11:53:39.315Z,101526.43
2023-05-25T11:56:30.728Z,101525.20
2023-05-25T11:59:28.230Z,101523.08
2023-05-25T12:02:06.284Z,101520.36
2023-05-25T12:04:41.298Z,101518.35
2023-05-25T12:07:16.548Z,101519.02
2023-05-25T12:09:56.406Z,101517.93
2023-05-25T12:12:34.258Z,101516.36
2023-05-25T12:15:12.001Z,101520.10
2023-05-25T12:17:57.765Z,101520.98
2023-05-25T12:20:31.399Z,101513.76
2023-05-25T12:23:09.416Z,101511.92
2023-05-25T12:25:50.237Z,101511.95
2023-05-25T12:28:26.578Z,101509.66
2023-05-25T12:31:30.285Z,101514.12
2023-05-25T12:34:15.915Z,101513.12
2023-05-25T12:36:52.395Z,101510.98
2023-05-25T12:39:40.146Z,101507.30
2023-05-25T12:42:27.417Z,101505.70
2023-05-25T12:45:33.138Z,101506.27
2023-05-25T12:48:09.981Z,101504.59
2023-05-25T12:51:21.084Z,101502.22
2023-05-25T12:53:57.952Z,101498.34
2023-05-25T12:56:31.723Z,101499.20
2023-05-25T12:59:21.795Z,101494.91
2023-05-25T13:01:54.654Z,101497.50
2023-05-25T13:04:28.234Z,101497.77
2023-05-25T13:07:03.758Z,101492.96
2023-05-25T13:09:36.628Z,101496.33
2023-05-25T13:12:11.384Z,101490.98
2023-05-25T13:14:45.372Z,101492.10
2023-05-25T13:17:23.543Z,101493.66
2023-05-25T13:20:01.512Z,101489.70
2023-05-25T13:22:39.260Z,101487.80
2023-05-25T13:25:19.244Z,101490.94
2023-05-25T13:28:03.445Z,101489.00
2023-05-25T13:30:48.682Z,101481.41
2023-05-25T13:33:36.580Z,101485.71
2023-05-25T13:36:12.608Z,101481.75
2023-05-25T13:38:47.291Z,101476.91
2023-05-25T13:41:51.501Z,101478.50
2023-05-25T13:44:27.879Z,101479.83
2023-05-25T13:47:08.925Z,101474.41
2023-05-25T13:49:52.209Z,101471.84
2023-05-25T13:52:29.999Z,101469.13
2023-05-25T13:55:11.726Z,101468.59
2023-05-25T13:57:54.729Z,101464.21
2023-05-25T14:00:30.110Z,101465.87
2023-05-25T14:03:04.020Z,101468.65
2023-05-25T14:06:04.037Z,101471.62
2023-05-25T14:08:37.712Z,101469.66
2023-05-25T14:11:27.929Z,101461.25
2023-05-25T14:14:11.464Z,101459.33
2023-05-25T14:16:49.580Z,101454.21
2023-05-25T14:19:22.816Z,101455.38
2023-05-25T14:22:13.362Z,101452.45
2023-05-25T14:24:55.265Z,101451.85
2023-05-25T14:27:33.093Z,101449.87
2023-05-25T14:30:20.686Z,101447.42
2023-05-25T14:32:57.176Z,101445.53
2023-05-25T14:35:45.373Z,101441.64
2023-05-25T14:38:21.933Z,101444.52
2023-05-25T14:41:11.745Z,101448.61
2023-05-25T14:43:50.797Z,101446.71
2023-05-25T14:46:26.323Z,101448.28
2023-05-25T14:49:00.276Z,101441.12
2023-05-25T14:51:38.337Z,101440.48
2023-05-25T14:54:13.810Z,101438.05
2023-05-25T14:56:52.629Z,101440.16
2023-05-25T14:59:37.087Z,101443.02
2023-05-25T15:02:11.712Z,101437.42
2023-05-25T15:04:52.790Z,101437.70
2023-05-25T15:07:28.595Z,101437.35
2023-05-25T15:10:04.118Z,101438.59
2023-05-25T15:12:41.965Z,101438.76
2023-05-25T15:15:20.595Z,101441.36
2023-05-25T15:18:00.799Z,101442.83
2023-05-25T15:20:37.422Z,101445.38
2023-05-25T15:23:13.028Z,101445.98
2023-05-25T15:25:50.894Z,101451.14
2023-05-25T15:28:27.150Z,101452.09
2023-05-25T15:31:04.609Z,101449.02
2023-05-25T15:33:56.326Z,101448.61
2023-05-25T15:36:40.660Z,101453.34
2023-05-25T15:39:17.265Z,101452.81
2023-05-25T15:41:56.737Z,101449.84
2023-05-25T15:44:38.459Z,101448.38
2023-05-25T15:47:22.612Z,101449.09
2023-05-25T15:49:58.775Z,101446.54
2023-05-25T15:52:38.446Z,101446.43
2023-05-25T15:55:20.371Z,101442.48
2023-05-25T15:57:59.159Z,101443.65
2023-05-25T16:00:38.301Z,101437.96
2023-05-25T16:03:14.746Z,101437.48
2023-05-25T16:05:51.619Z,101441.80
2023-05-25T16:08:35.084Z,101445.48
2023-05-25T16:12:01.219Z,101441.84
2023-05-25T16:14:36.130Z,101437.85
2023-05-25T16:17:12.990Z,101433.59
2023-05-25T16:19:47.701Z,101432.81
2023-05-25T16:22:24.608Z,101434.55
2023-05-25T16:24:57.453Z,101435.78
2023-05-25T16:27:33.544Z,101439.00
2023-05-25T16:30:31.261Z,101438.34
2023-05-25T16:33:04.271Z,101435.85
2023-05-25T16:35:37.202Z,101438.70
2023-05-25T16:38:10.836Z,101436.75
2023-05-25T16:40:46.850Z,101437.46
2023-05-25T16:43:22.242Z,101437.97
2023-05-25T16:45:55.675Z,101433.90
2023-05-25T16:48:34.770Z,101435.70
2023-05-25T16:51:15.450Z,101437.56
2023-05-25T16:53:48.284Z,101437.92
2023-05-25T16:56:22.730Z,101437.27
2023-05-25T16:58:58.212Z,101436.92
2023-05-25T17:01:35.264Z,101435.10
2023-05-25T17:04:10.737Z,101436.92
2023-05-25T17:06:45.432Z,101436.11
2023-05-25T17:09:18.595Z,101435.81
2023-05-25T17:11:53.671Z,101438.17
2023-05-25T17:14:33.240Z,101442.05
2023-05-25T17:17:10.742Z,101446.20
2023-05-25T17:19:43.912Z,101448.39
2023-05-25T17:22:17.166Z,101449.64
2023-05-25T17:24:51.172Z,101452.14
2023-05-25T17:27:25.524Z,101450.77
2023-05-25T17:29:58.306Z,101448.93
2023-05-25T17:32:31.306Z,101451.83
2023-05-25T17:35:04.935Z,101454.09
2023-05-25T17:37:37.710Z,101462.62
2023-05-25T17:40:12.753Z,101464.48
2023-05-25T17:42:49.573Z,101465.17
2023-05-25T17:45:24.346Z,101467.85
2023-05-25T17:48:05.296Z,101475.16
2023-05-25T17:50:39.092Z,101477.08
2023-05-25T17:53:42.760Z,101481.48
2023-05-25T17:56:15.661Z,101484.44
2023-05-25T17:58:48.529Z,101487.27
2023-05-25T18:01:21.513Z,101487.77
2023-05-25T18:03:54.760Z,101490.52
2023-05-25T18:06:29.393Z,101493.15
2023-05-25T18:09:02.714Z,101495.02
2023-05-25T18:11:36.888Z,101499.17
2023-05-25T18:14:12.386Z,101503.61
2023-05-25T18:16:45.365Z,101505.02
2023-05-25T18:19:20.537Z,101506.19
2023-05-25T18:21:53.348Z,101506.04
2023-05-25T18:24:26.472Z,101511.40
2023-05-25T18:27:04.094Z,101516.61
2023-05-25T18:29:40.376Z,101522.33
2023-05-25T18:32:13.264Z,101525.98
2023-05-25T18:34:48.540Z,101529.32
2023-05-25T18:37:23.481Z,101525.46
2023-05-25T18:39:56.357Z,101530.69
2023-05-25T18:42:30.566Z,101538.05
2023-05-25T18:45:04.713Z,101538.91
2023-05-25T18:47:37.550Z,101545.24
2023-05-25T18:50:12.609Z,101546.98
2023-05-25T18:52:58.193Z,101552.16
2023-05-25T18:55:31.308Z,101553.98
2023-05-25T18:58:06.111Z,101553.05
2023-05-25T19:00:42.740Z,101552.46
2023-05-25T19:03:15.751Z,101555.67
2023-05-25T19:05:58.398Z,101558.69
2023-05-25T19:08:32.036Z,101559.23
2023-05-25T19:11:05.972Z,101558.38
2023-05-25T19:13:47.230Z,101560.86
2023-05-25T19:16:20.224Z,101564.31
2023-05-25T19:18:56.844Z,101565.10
2023-05-25T19:21:29.844Z,101571.98
2023-05-25T19:24:02.689Z,101577.92
2023-05-25T19:26:36.853Z,101579.77
2023-05-25T19:29:09.836Z,101579.95
2023-05-25T19:32:00.938Z,101585.42
2023-05-25T19:34:36.060Z,101591.16
2023-05-25T19:37:11.384Z,101593.52
2023-05-25T19:39:48.050Z,101592.59
2023-05-25T19:42:20.919Z,101593.85
2023-05-25T19:45:10.210Z,101593.45
2023-05-25T19:47:48.922Z,101594.93
2023-05-25T19:50:33.461Z,101597.09
2023-05-25T19:53:07.765Z,101606.45
2023-05-25T19:55:44.032Z,101609.42
2023-05-25T19:58:26.413Z,101610.52
2023-05-25T20:01:05.700Z,101614.48
2023-05-25T20:03:38.599Z,101615.92
2023-05-25T20:06:12.062Z,101619.14
2023-05-25T20:08:45.675Z,101622.33
2023-05-25T20:11:19.673Z,101623.97
2023-05-25T20:14:24.371Z,101621.00
2023-05-25T20:17:02.381Z,101633.57
2023-05-25T20:19:44.398Z,101631.75
2023-05-25T20:22:23.437Z,101641.15
2023-05-25T20:25:03.693Z,101643.73
2023-05-25T20:27:58.622Z,101643.04
2023-05-25T20:30:36.366Z,101642.14
2023-05-25T20:33:19.392Z,101640.85
2023-05-25T20:35:56.213Z,101647.85
2023-05-25T20:38:29.050Z,101648.50
2023-05-25T20:41:07.216Z,101649.52
2023-05-25T20:43:51.377Z,101648.73
2023-05-25T20:46:28.519Z,101648.05
2023-05-25T20:49:28.264Z,101652.80
2023-05-25T20:52:07.885Z,101655.02
2023-05-25T20:54:45.001Z,101653.98
2023-05-25T20:57:25.215Z,101653.23
2023-05-25T21:00:03.699Z,101653.58
2023-05-25T21:02:36.816Z,101655.11
2023-05-25T21:05:27.125Z,101657.95
2023-05-25T21:08:04.151Z,101656.79
2023-05-25T21:10:52.222Z,101654.00
2023-05-25T21:13:33.893Z,101653.39
2023-05-25T21:16:18.405Z,101648.55
2023-05-25T21:18:51.481Z,101651.91
2023-05-25T21:21:28.201Z,101653.44
2023-05-25T21:24:17.218Z,101653.33
2023-05-25T21:26:53.331Z,101656.89
2023-05-25T21:29:28.711Z,101659.30
2023-05-25T21:32:01.712Z,101658.40
2023-05-25T21:34:42.302Z,101657.70
2023-05-25T21:37:18.759Z,101659.67
2023-05-25T21:39:51.561Z,101661.10
2023-05-25T21:42:26.280Z,101658.05
2023-05-25T21:45:24.816Z,101661.02
2023-05-25T21:48:02.149Z,101659.87
2023-05-25T21:50:36.400Z,101659.91
2023-05-25T21:53:09.967Z,101652.29
2023-05-25T21:55:43.086Z,101652.63
2023-05-25T21:58:18.823Z,101659.17
2023-05-25T22:01:02.853Z,101661.52
2023-05-25T22:03:36.556Z,101663.62
2023-05-25T22:06:10.297Z,101664.56
2023-05-25T22:08:43.050Z,101667.83
2023-05-25T22:11:15.865Z,101665.94
2023-05-25T22:13:48.708Z,101666.73
2023-05-25T22:16:21.610Z,101667.77
2023-05-25T22:18:59.944Z,101669.31
2023-05-25T22:21:35.012Z,101668.52
2023-05-25T22:24:09.493Z,101674.05
2023-05-25T22:26:42.362Z,101671.66
2023-05-25T22:29:15.141Z,101675.80
2023-05-25T22:31:47.955Z,101678.84
2023-05-25T22:34:23.024Z,101680.98
2023-05-25T22:36:58.037Z,101679.19
2023-05-25T22:39:30.871Z,101680.34
2023-05-25T22:42:04.033Z,101681.98
2023-05-25T22:44:40.468Z,101682.73
2023-05-25T22:47:14.640Z,101684.85
2023-05-25T22:49:50.454Z,101683.85
2023-05-25T22:52:23.939Z,101682.85
2023-05-25T22:54:56.690Z,101682.41
2023-05-25T22:57:29.532Z,101681.02
2023-05-25T23:00:02.524Z,101681.50
2023-05-25T23:02:38.527Z,101679.43
2023-05-25T23:05:12.402Z,101683.11
2023-05-25T23:07:47.082Z,101683.57
2023-05-25T23:10:21.163Z,101688.12
2023-05-25T23:12:54.784Z,101686.89
2023-05-25T23:15:29.348Z,101687.15
2023-05-25T23:18:04.347Z,101682.45
2023-05-25T23:20:40.735Z,101683.91
2023-05-25T23:23:14.913Z,101688.48
2023-05-25T23:25:48.018Z,101686.42
2023-05-25T23:28:24.199Z,101682.86
2023-05-25T23:30:57.330Z,101684.38
2023-05-25T23:33:31.152Z,101695.04
2023-05-25T23:36:04.453Z,101698.93
2023-05-25T23:38:37.342Z,101699.02
2023-05-25T23:41:10.690Z,101701.96
2023-05-25T23:43:43.463Z,101700.05
2023-05-25T23:46:17.491Z,101701.73
2023-05-25T23:48:55.725Z,101705.27
2023-05-25T23:51:29.168Z,101699.95
2023-05-25T23:54:03.301Z,101701.38
2023-05-25T23:56:37.984Z,101699.77
2023-05-25T23:59:35.207Z,101694.94
